createdAt,value
2024-01-27T00:02:22.675Z,-3.00
2024-01-27T00:04:49.869Z,-3.05
2024-01-27T00:07:16.633Z,-2.99
2024-01-27T00:09:44.203Z,-2.93
2024-01-27T00:12:10.910Z,-2.87
2024-01-27T00:14:39.153Z,-2.86
2024-01-27T00:17:05.875Z,-2.93
2024-01-27T00:19:32.563Z,-2.97
2024-01-27T00:21:59.927Z,-3.10
2024-01-27T00:24:26.773Z,-3.18
2024-01-27T00:26:53.749Z,-3.34
2024-01-27T00:29:20.575Z,-3.42
2024-01-27T00:31:47.200Z,-3.50
2024-01-27T00:34:13.942Z,-3.46
2024-01-27T00:36:40.800Z,-3.38
2024-01-27T00:39:07.529Z,-3.36
2024-01-27T00:41:34.199Z,-3.40
2024-01-27T00:44:00.840Z,-3.51
2024-01-27T00:46:27.439Z,-3.61
2024-01-27T00:48:54.405Z,-3.60
2024-01-27T00:51:21.159Z,-3.70
2024-01-27T00:53:47.842Z,-3.77
2024-01-27T00:56:14.462Z,-3.79
2024-01-27T00:58:41.159Z,-3.85
2024-01-27T01:01:07.779Z,-3.80
2024-01-27T01:03:34.529Z,-3.82
2024-01-27T01:06:01.304Z,-3.80
2024-01-27T01:08:28.015Z,-3.88
2024-01-27T01:10:54.658Z,-3.88
2024-01-27T01:13:21.810Z,-3.87
2024-01-27T01:15:48.458Z,-3.82
2024-01-27T01:18:15.135Z,-3.80
2024-01-27T01:20:41.827Z,-3.83
2024-01-27T01:23:08.728Z,-3.90
2024-01-27T01:25:35.428Z,-3.97
2024-01-27T01:28:02.140Z,-4.03
2024-01-27T01:30:28.795Z,-4.03
2024-01-27T01:32:55.695Z,-3.93
2024-01-27T01:35:22.394Z,-3.85
2024-01-27T01:37:52.067Z,-3.85
2024-01-27T01:40:18.698Z,-3.87
2024-01-27T01:42:50.872Z,-3.93
2024-01-27T01:45:18.439Z,-3.95
2024-01-27T01:47:45.792Z,-4.02
2024-01-27T01:50:12.591Z,-3.95
2024-01-27T01:52:39.890Z,-3.95
2024-01-27T01:55:06.940Z,-4.02
2024-01-27T01:57:34.545Z,-4.04
2024-01-27T02:00:01.324Z,-4.03
2024-01-27T02:02:28.017Z,-4.03
2024-01-27T02:04:54.659Z,-4.08
2024-01-27T02:07:21.320Z,-4.16
2024-01-27T02:09:47.988Z,-4.18
2024-01-27T02:12:14.685Z,-4.21
2024-01-27T02:14:41.326Z,-4.23
2024-01-27T02:17:07.977Z,-4.23
2024-01-27T02:19:34.796Z,-4.28
2024-01-27T02:22:01.639Z,-4.43
2024-01-27T02:24:29.681Z,-4.41
2024-01-27T02:26:56.677Z,-4.47
2024-01-27T02:29:23.480Z,-4.49
2024-01-27T02:31:50.063Z,-4.48
2024-01-27T02:34:16.811Z,-4.49
2024-01-27T02:36:45.039Z,-4.60
2024-01-27T02:39:11.866Z,-4.69
2024-01-27T02:41:40.468Z,-4.73
2024-01-27T02:44:07.235Z,-4.77
2024-01-27T02:46:33.884Z,-4.86
2024-01-27T02:49:00.640Z,-4.84
2024-01-27T02:51:27.480Z,-4.77
2024-01-27T02:53:54.208Z,-4.90
2024-01-27T02:56:20.855Z,-4.88
2024-01-27T02:58:47.610Z,-4.81
2024-01-27T03:01:14.251Z,-4.73
2024-01-27T03:03:40.928Z,-4.78
2024-01-27T03:06:07.654Z,-4.77
2024-01-27T03:08:34.650Z,-4.81
2024-01-27T03:11:01.302Z,-4.90
2024-01-27T03:13:27.923Z,-4.94
2024-01-27T03:15:54.582Z,-5.00
2024-01-27T03:18:21.468Z,-4.97
2024-01-27T03:20:48.968Z,-4.92
2024-01-27T03:23:15.664Z,-4.91
2024-01-27T03:25:42.330Z,-4.95
2024-01-27T03:28:09.202Z,-5.00
2024-01-27T03:30:35.920Z,-5.04
2024-01-27T03:33:02.968Z,-5.08
2024-01-27T03:35:29.744Z,-5.10
2024-01-27T03:37:56.348Z,-5.10
2024-01-27T03:40:23.052Z,-5.11
2024-01-27T03:42:49.676Z,-5.17
2024-01-27T03:45:16.373Z,-5.14
2024-01-27T03:47:43.278Z,-5.08
2024-01-27T03:50:10.244Z,-5.10
2024-01-27T03:52:37.148Z,-5.18
2024-01-27T03:55:03.916Z,-5.20
2024-01-27T03:57:30.543Z,-5.20
2024-01-27T03:59:57.212Z,-5.29
2024-01-27T04:02:23.868Z,-5.32
2024-01-27T04:04:50.541Z,-5.33
2024-01-27T04:07:17.434Z,-5.36
2024-01-27T04:09:44.190Z,-5.33
2024-01-27T04:12:10.975Z,-5.44
2024-01-27T04:14:37.791Z,-5.33
2024-01-27T04:17:04.575Z,-5.37
2024-01-27T04:19:31.282Z,-5.39
2024-01-27T04:21:58.022Z,-5.40
2024-01-27T04:24:24.706Z,-5.34
2024-01-27T04:26:51.559Z,-5.32
2024-01-27T04:29:18.308Z,-5.34
2024-01-27T04:31:44.992Z,-5.36
2024-01-27T04:34:11.751Z,-5.39
2024-01-27T04:36:38.958Z,-5.35
2024-01-27T04:39:05.706Z,-5.40
2024-01-27T04:41:32.505Z,-5.43
2024-01-27T04:44:00.175Z,-5.42
2024-01-27T04:46:26.899Z,-5.44
2024-01-27T04:48:53.755Z,-5.45
2024-01-27T04:51:20.529Z,-5.46
2024-01-27T04:53:47.185Z,-5.48
2024-01-27T04:56:14.194Z,-5.48
2024-01-27T04:58:40.976Z,-5.37
2024-01-27T05:01:08.081Z,-5.36
2024-01-27T05:03:35.041Z,-5.39
2024-01-27T05:06:01.863Z,-5.56
2024-01-27T05:08:28.606Z,-5.67
2024-01-27T05:10:58.415Z,-5.73
2024-01-27T05:13:26.049Z,-5.76
2024-01-27T05:15:52.714Z,-5.80
2024-01-27T05:18:19.828Z,-5.79
2024-01-27T05:20:46.623Z,-5.84
2024-01-27T05:23:13.195Z,-5.92
2024-01-27T05:25:40.647Z,-5.97
2024-01-27T05:28:07.386Z,-6.02
2024-01-27T05:30:34.180Z,-6.05
2024-01-27T05:33:01.364Z,-6.06
2024-01-27T05:35:28.144Z,-6.07
2024-01-27T05:37:55.196Z,-6.17
2024-01-27T05:40:21.877Z,-6.02
2024-01-27T05:42:50.122Z,-5.96
2024-01-27T05:45:16.858Z,-5.91
2024-01-27T05:47:43.573Z,-5.82
2024-01-27T05:50:10.450Z,-5.72
2024-01-27T05:52:37.088Z,-5.77
2024-01-27T05:55:04.385Z,-5.79
2024-01-27T05:57:31.115Z,-5.85
2024-01-27T05:59:57.836Z,-5.72
2024-01-27T06:02:25.153Z,-5.69
2024-01-27T06:04:51.882Z,-5.74
2024-01-27T06:07:18.718Z,-5.78
2024-01-27T06:09:45.569Z,-5.84
2024-01-27T06:12:12.206Z,-5.84
2024-01-27T06:14:38.875Z,-5.91
2024-01-27T06:17:05.713Z,-5.91
2024-01-27T06:19:32.584Z,-5.90
2024-01-27T06:21:59.832Z,-6.05
2024-01-27T06:24:27.288Z,-6.03
2024-01-27T06:26:53.997Z,-6.08
2024-01-27T06:29:20.639Z,-6.10
2024-01-27T06:31:47.366Z,-6.12
2024-01-27T06:34:14.276Z,-6.16
2024-01-27T06:36:41.068Z,-6.19
2024-01-27T06:39:09.098Z,-6.26
2024-01-27T06:41:35.875Z,-6.30
2024-01-27T06:44:02.482Z,-6.28
2024-01-27T06:46:29.083Z,-6.25
2024-01-27T06:48:55.869Z,-6.16
2024-01-27T06:51:23.044Z,-6.06
2024-01-27T06:53:49.978Z,-6.03
2024-01-27T06:56:17.485Z,-6.06
2024-01-27T06:58:44.126Z,-6.09
2024-01-27T07:01:10.874Z,-6.07
2024-01-27T07:03:37.594Z,-6.02
2024-01-27T07:06:04.610Z,-6.08
2024-01-27T07:08:31.356Z,-6.14
2024-01-27T07:10:58.030Z,-6.19
2024-01-27T07:13:24.678Z,-6.28
2024-01-27T07:15:51.468Z,-6.35
2024-01-27T07:18:19.051Z,-6.38
2024-01-27T07:20:45.764Z,-6.39
2024-01-27T07:23:12.383Z,-6.38
2024-01-27T07:25:38.966Z,-6.30
2024-01-27T07:28:05.996Z,-6.32
2024-01-27T07:30:32.654Z,-6.24
2024-01-27T07:32:59.434Z,-6.20
2024-01-27T07:35:26.085Z,-6.15
2024-01-27T07:37:52.674Z,-6.07
2024-01-27T07:40:19.253Z,-5.88
2024-01-27T07:42:46.061Z,-5.80
2024-01-27T07:45:12.858Z,-5.76
2024-01-27T07:47:39.569Z,-5.81
2024-01-27T07:50:06.479Z,-5.84
2024-01-27T07:52:33.226Z,-5.87
2024-01-27T07:54:59.900Z,-5.93
2024-01-27T07:57:26.551Z,-5.95
2024-01-27T07:59:53.239Z,-6.00
2024-01-27T08:02:19.901Z,-5.98
2024-01-27T08:04:46.697Z,-5.86
2024-01-27T08:07:15.999Z,-5.74
2024-01-27T08:09:42.992Z,-5.63
2024-01-27T08:12:09.723Z,-5.57
2024-01-27T08:14:36.906Z,-5.50
2024-01-27T08:17:04.569Z,-5.55
2024-01-27T08:19:31.743Z,-5.59
2024-01-27T08:21:58.516Z,-5.62
2024-01-27T08:24:25.584Z,-6.07
2024-01-27T08:26:52.424Z,-5.62
2024-01-27T08:29:19.130Z,-5.54
2024-01-27T08:31:45.773Z,-5.38
2024-01-27T08:34:13.957Z,-5.27
2024-01-27T08:36:41.141Z,-5.17
2024-01-27T08:39:13.383Z,-5.20
2024-01-27T08:41:40.412Z,-5.26
2024-01-27T08:44:07.084Z,-5.21
2024-01-27T08:46:33.758Z,-5.19
2024-01-27T08:49:00.487Z,-5.17
2024-01-27T08:51:27.290Z,-5.18
2024-01-27T08:53:54.073Z,-5.13
2024-01-27T08:56:20.805Z,-5.02
2024-01-27T08:58:48.813Z,-4.93
2024-01-27T09:01:17.079Z,-4.88
2024-01-27T09:03:43.850Z,-4.88
2024-01-27T09:06:11.035Z,-4.86
2024-01-27T09:08:37.989Z,-4.88
2024-01-27T09:11:04.798Z,-4.85
2024-01-27T09:13:31.459Z,-4.79
2024-01-27T09:15:58.351Z,-4.82
2024-01-27T09:18:27.733Z,-4.78
2024-01-27T09:20:55.014Z,-4.80
2024-01-27T09:23:21.746Z,-4.78
2024-01-27T09:25:48.345Z,-4.84
2024-01-27T09:28:15.633Z,-4.77
2024-01-27T09:30:42.458Z,-4.76
2024-01-27T09:33:09.376Z,-4.77
2024-01-27T09:35:36.200Z,-4.75
2024-01-27T09:38:02.853Z,-4.67
2024-01-27T09:40:29.528Z,-4.62
2024-01-27T09:42:59.865Z,-4.57
2024-01-27T09:45:27.114Z,-4.46
2024-01-27T09:47:54.963Z,-4.42
2024-01-27T09:50:22.761Z,-4.28
2024-01-27T09:52:49.470Z,-4.12
2024-01-27T09:55:16.202Z,-3.95
2024-01-27T09:57:43.720Z,-3.86
2024-01-27T10:00:11.490Z,-3.78
2024-01-27T10:02:40.026Z,-3.65
2024-01-27T10:05:07.149Z,-3.55
2024-01-27T10:07:33.800Z,-3.42
2024-01-27T10:10:00.550Z,-3.34
2024-01-27T10:12:29.101Z,-3.32
2024-01-27T10:14:55.800Z,-3.31
2024-01-27T10:17:27.469Z,-3.31
2024-01-27T10:20:05.113Z,-3.23
2024-01-27T10:22:41.382Z,-3.22
2024-01-27T10:25:08.960Z,-3.17
2024-01-27T10:27:36.100Z,-3.20
2024-01-27T10:30:03.421Z,-3.17
2024-01-27T10:32:32.069Z,-3.13
2024-01-27T10:35:05.579Z,-3.12
2024-01-27T10:37:32.333Z,-3.07
2024-01-27T10:40:08.485Z,-3.07
2024-01-27T10:42:38.602Z,-3.10
2024-01-27T10:45:06.098Z,-3.11
2024-01-27T10:47:33.505Z,-3.06
2024-01-27T10:50:01.713Z,-2.99
2024-01-27T10:52:35.789Z,-2.86
2024-01-27T10:55:04.535Z,-2.82
2024-01-27T10:57:31.721Z,-2.72
2024-01-27T10:59:59.046Z,-2.62
2024-01-27T11:02:26.246Z,-2.56
2024-01-27T11:04:56.124Z,-2.49
2024-01-27T11:07:24.530Z,-2.44
2024-01-27T11:09:58.328Z,-2.40
2024-01-27T11:12:25.372Z,-2.32
2024-01-27T11:14:52.804Z,-2.28
2024-01-27T11:17:22.249Z,-2.24
2024-01-27T11:19:49.050Z,-2.18
2024-01-27T11:22:28.860Z,-2.16
2024-01-27T11:25:14.784Z,-2.09
2024-01-27T11:27:41.831Z,-1.95
2024-01-27T11:30:25.606Z,-1.87
2024-01-27T11:32:53.660Z,-1.77
2024-01-27T11:35:20.439Z,-1.72
2024-01-27T11:37:49.026Z,-1.65
2024-01-27T11:40:16.727Z,-1.59
2024-01-27T11:42:43.616Z,-1.54
2024-01-27T11:45:11.198Z,-1.50
2024-01-27T11:47:37.952Z,-1.48
2024-01-27T11:50:04.803Z,-1.41
2024-01-27T11:52:31.500Z,-1.36
2024-01-27T11:54:59.135Z,-1.34
2024-01-27T11:57:26.736Z,-1.31
2024-01-27T11:59:54.190Z,-1.33
2024-01-27T12:02:21.188Z,-1.32
2024-01-27T12:04:51.419Z,-1.28
2024-01-27T12:07:22.286Z,-1.19
2024-01-27T12:09:52.468Z,-1.07
2024-01-27T12:12:19.388Z,-0.97
2024-01-27T12:14:47.508Z,-0.89
2024-01-27T12:17:14.420Z,-0.80
2024-01-27T12:19:46.983Z,-0.70
2024-01-27T12:22:23.266Z,-0.60
2024-01-27T12:24:50.218Z,-0.53
2024-01-27T12:27:17.816Z,-0.49
2024-01-27T12:29:44.561Z,-0.45
2024-01-27T12:32:11.259Z,-0.41
2024-01-27T12:34:42.123Z,-0.39
2024-01-27T12:37:09.719Z,-0.38
2024-01-27T12:39:36.598Z,-0.43
2024-01-27T12:42:03.516Z,-0.43
2024-01-27T12:44:30.184Z,-0.46
2024-01-27T12:46:58.245Z,-0.51
2024-01-27T12:49:25.166Z,-0.55
2024-01-27T12:51:52.761Z,-0.61
2024-01-27T12:54:20.464Z,-0.66
2024-01-27T12:56:47.125Z,-0.71
2024-01-27T12:59:15.197Z,-0.75
2024-01-27T13:01:42.110Z,-0.81
2024-01-27T13:04:08.769Z,-0.82
2024-01-27T13:06:35.553Z,-0.82
2024-01-27T13:09:02.279Z,-0.85
2024-01-27T13:11:28.928Z,-0.86
2024-01-27T13:13:55.585Z,-0.88
2024-01-27T13:16:22.233Z,-0.87
2024-01-27T13:18:49.064Z,-0.95
2024-01-27T13:21:15.853Z,-1.01
2024-01-27T13:23:42.634Z,-1.04
2024-01-27T13:26:17.897Z,-1.08
2024-01-27T13:28:46.704Z,-1.09
2024-01-27T13:31:13.337Z,-1.12
2024-01-27T13:33:40.371Z,-1.09
2024-01-27T13:36:07.285Z,-1.11
2024-01-27T13:38:35.060Z,-1.12
2024-01-27T13:41:01.678Z,-1.08
2024-01-27T13:43:28.424Z,-1.14
2024-01-27T13:45:55.969Z,-1.14
2024-01-27T13:48:22.925Z,-1.13
2024-01-27T13:50:49.672Z,-1.15
2024-01-27T13:53:16.340Z,-1.18
2024-01-27T13:55:45.255Z,-1.17
2024-01-27T13:58:11.978Z,-1.18
2024-01-27T14:00:38.724Z,-1.20
2024-01-27T14:03:05.665Z,-1.21
2024-01-27T14:05:32.414Z,-1.25
2024-01-27T14:07:59.226Z,-1.28
2024-01-27T14:10:26.098Z,-1.28
2024-01-27T14:12:53.026Z,-1.28
2024-01-27T14:15:19.797Z,-1.28
2024-01-27T14:17:47.333Z,-1.31
2024-01-27T14:20:14.746Z,-1.33
2024-01-27T14:22:41.602Z,-1.34
2024-01-27T14:25:09.168Z,-1.38
2024-01-27T14:27:36.483Z,-1.41
2024-01-27T14:30:03.360Z,-1.41
2024-01-27T14:32:30.750Z,-1.42
2024-01-27T14:34:58.004Z,-1.43
2024-01-27T14:37:24.781Z,-1.45
2024-01-27T14:39:51.490Z,-1.42
2024-01-27T14:42:20.889Z,-1.41
2024-01-27T14:44:50.455Z,-1.33
2024-01-27T14:47:17.303Z,-1.23
2024-01-27T14:49:46.548Z,-1.24
2024-01-27T14:52:13.366Z,-1.23
2024-01-27T14:54:40.631Z,-1.25
2024-01-27T14:57:10.529Z,-1.27
2024-01-27T14:59:40.364Z,-1.24
2024-01-27T15:02:08.769Z,-1.22
2024-01-27T15:04:35.594Z,-1.18
2024-01-27T15:07:02.331Z,-1.08
2024-01-27T15:09:29.118Z,-1.03
2024-01-27T15:11:55.895Z,-0.99
2024-01-27T15:14:22.562Z,-0.96
2024-01-27T15:16:49.293Z,-0.95
2024-01-27T15:19:16.701Z,-0.91
2024-01-27T15:21:43.533Z,-0.93
2024-01-27T15:24:10.408Z,-0.88
2024-01-27T15:26:37.740Z,-0.89
2024-01-27T15:29:04.383Z,-0.89
2024-01-27T15:31:31.067Z,-0.91
2024-01-27T15:33:57.948Z,-0.88
2024-01-27T15:36:24.888Z,-0.88
2024-01-27T15:38:51.583Z,-0.87
2024-01-27T15:41:20.074Z,-0.86
2024-01-27T15:43:48.920Z,-0.85
2024-01-27T15:46:15.972Z,-0.88
2024-01-27T15:48:42.937Z,-0.88
2024-01-27T15:51:09.818Z,-0.82
2024-01-27T15:53:36.472Z,-0.81
2024-01-27T15:56:03.199Z,-0.83
2024-01-27T15:58:29.875Z,-0.83
2024-01-27T16:00:56.739Z,-0.88
2024-01-27T16:03:25.949Z,-0.89
2024-01-27T16:05:52.807Z,-0.92
2024-01-27T16:08:19.399Z,-1.01
2024-01-27T16:10:49.795Z,-1.04
2024-01-27T16:13:16.482Z,-1.09
2024-01-27T16:15:43.274Z,-1.14
2024-01-27T16:18:10.534Z,-1.14
2024-01-27T16:20:37.298Z,-1.15
2024-01-27T16:23:04.069Z,-1.12
2024-01-27T16:25:30.688Z,-1.20
2024-01-27T16:27:58.573Z,-1.28
2024-01-27T16:30:26.019Z,-1.37
2024-01-27T16:32:52.891Z,-1.49
2024-01-27T16:35:20.278Z,-1.52
2024-01-27T16:37:46.989Z,-1.62
2024-01-27T16:40:13.720Z,-1.63
2024-01-27T16:42:40.435Z,-1.72
2024-01-27T16:45:08.213Z,-1.72
2024-01-27T16:47:35.174Z,-1.75
2024-01-27T16:50:04.795Z,-1.85
2024-01-27T16:52:31.582Z,-1.88
2024-01-27T16:54:58.307Z,-1.94
2024-01-27T16:57:25.025Z,-1.95
2024-01-27T16:59:52.105Z,-2.02
2024-01-27T17:02:18.771Z,-2.02
2024-01-27T17:04:50.919Z,-2.09
2024-01-27T17:07:17.855Z,-2.13
2024-01-27T17:09:44.651Z,-2.18
2024-01-27T17:12:12.425Z,-2.21
2024-01-27T17:14:40.222Z,-2.23
2024-01-27T17:17:06.892Z,-2.28
2024-01-27T17:19:33.697Z,-2.37
2024-01-27T17:22:00.434Z,-2.41
2024-01-27T17:24:27.161Z,-2.43
2024-01-27T17:26:53.811Z,-2.39
2024-01-27T17:29:20.443Z,-2.40
2024-01-27T17:31:47.675Z,-2.45
2024-01-27T17:34:16.083Z,-2.42
2024-01-27T17:36:42.773Z,-2.41
2024-01-27T17:39:09.511Z,-4.67
2024-01-27T17:41:36.168Z,-2.18
2024-01-27T17:44:02.805Z,-2.13
2024-01-27T17:46:30.991Z,-2.10
2024-01-27T17:48:57.795Z,-2.11
2024-01-27T17:51:24.710Z,-2.13
2024-01-27T17:53:51.831Z,-2.24
2024-01-27T17:56:24.830Z,-2.27
2024-01-27T17:58:51.614Z,-2.35
2024-01-27T18:01:18.267Z,-2.37
2024-01-27T18:03:45.094Z,-2.49
2024-01-27T18:06:11.821Z,-2.58
2024-01-27T18:08:38.518Z,-2.65
2024-01-27T18:11:05.092Z,-2.73
2024-01-27T18:13:32.091Z,-2.78
2024-01-27T18:16:00.464Z,-2.87
2024-01-27T18:18:28.187Z,-2.93
2024-01-27T18:20:54.910Z,-2.97
2024-01-27T18:23:21.558Z,-3.02
2024-01-27T18:25:48.175Z,-3.01
2024-01-27T18:28:15.191Z,-3.09
2024-01-27T18:30:41.818Z,-3.13
2024-01-27T18:33:08.619Z,-3.06
2024-01-27T18:35:35.313Z,-3.06
2024-01-27T18:38:02.035Z,-3.10
2024-01-27T18:40:28.654Z,-3.12
2024-01-27T18:42:55.311Z,-3.16
2024-01-27T18:45:21.975Z,-3.08
2024-01-27T18:47:48.749Z,-3.00
2024-01-27T18:50:15.770Z,-2.98
2024-01-27T18:52:43.364Z,-2.90
2024-01-27T18:55:10.238Z,-2.81
2024-01-27T18:57:37.192Z,-2.69
2024-01-27T19:00:06.039Z,-2.64
2024-01-27T19:02:32.922Z,-2.65
2024-01-27T19:05:03.386Z,-2.66
2024-01-27T19:07:30.050Z,-2.56
2024-01-27T19:09:56.673Z,-2.42
2024-01-27T19:12:23.314Z,-2.34
2024-01-27T19:14:49.948Z,-2.38
2024-01-27T19:17:16.513Z,-2.49
2024-01-27T19:19:43.279Z,-2.56
2024-01-27T19:22:09.953Z,-2.61
2024-01-27T19:24:37.502Z,-2.73
2024-01-27T19:27:04.767Z,-2.80
2024-01-27T19:29:31.441Z,-2.85
2024-01-27T19:31:58.101Z,-2.85
2024-01-27T19:34:25.163Z,-2.73
2024-01-27T19:36:51.832Z,-2.70
2024-01-27T19:39:18.488Z,-2.61
2024-01-27T19:41:46.206Z,-2.60
2024-01-27T19:44:12.926Z,-2.53
2024-01-27T19:46:39.702Z,-2.61
2024-01-27T19:49:06.731Z,-2.63
2024-01-27T19:51:33.632Z,-2.57
2024-01-27T19:54:00.360Z,-2.61
2024-01-27T19:56:27.307Z,-2.55
2024-01-27T19:58:53.962Z,-2.61
2024-01-27T20:01:20.575Z,-2.71
2024-01-27T20:03:48.721Z,-2.72
2024-01-27T20:06:16.771Z,-2.73
2024-01-27T20:08:43.669Z,-2.75
2024-01-27T20:11:11.285Z,-2.81
2024-01-27T20:13:38.025Z,-2.66
2024-01-27T20:16:04.904Z,-2.69
2024-01-27T20:18:31.758Z,-2.68
2024-01-27T20:20:58.552Z,-2.73
2024-01-27T20:23:25.305Z,-2.80
2024-01-27T20:25:52.638Z,-2.72
2024-01-27T20:28:19.726Z,-2.76
2024-01-27T20:30:47.219Z,-2.70
2024-01-27T20:33:14.298Z,-2.71
2024-01-27T20:35:41.077Z,-2.68
2024-01-27T20:38:07.763Z,-2.73
2024-01-27T20:40:34.675Z,-2.72
2024-01-27T20:43:06.042Z,-2.75
2024-01-27T20:45:32.680Z,-2.88
2024-01-27T20:47:59.412Z,-2.91
2024-01-27T20:50:26.881Z,-2.85
2024-01-27T20:52:53.587Z,-2.90
2024-01-27T20:55:20.313Z,-2.90
2024-01-27T20:57:47.009Z,-2.91
2024-01-27T21:00:13.917Z,-2.89
2024-01-27T21:02:40.613Z,-2.93
2024-01-27T21:05:07.516Z,-2.96
2024-01-27T21:07:34.665Z,-2.94
2024-01-27T21:10:01.376Z,-2.96
2024-01-27T21:12:28.129Z,-2.94
2024-01-27T21:14:54.737Z,-2.88
2024-01-27T21:17:21.420Z,-2.83
2024-01-27T21:19:49.990Z,-2.87
2024-01-27T21:22:17.629Z,-2.90
2024-01-27T21:24:45.065Z,-2.89
2024-01-27T21:27:11.776Z,-2.95
2024-01-27T21:29:38.423Z,-2.88
2024-01-27T21:32:05.477Z,-2.98
2024-01-27T21:34:32.358Z,-2.93
2024-01-27T21:36:59.037Z,-2.92
2024-01-27T21:39:27.109Z,-3.21
2024-01-27T21:41:53.831Z,-3.08
2024-01-27T21:44:20.582Z,-3.10
2024-01-27T21:46:47.218Z,-3.11
2024-01-27T21:49:14.046Z,-3.11
2024-01-27T21:51:40.798Z,-3.13
2024-01-27T21:54:07.888Z,-3.18
2024-01-27T21:56:34.496Z,-3.22
2024-01-27T21:59:03.056Z,-3.22
2024-01-27T22:01:30.389Z,-3.24
2024-01-27T22:03:58.798Z,-3.20
2024-01-27T22:06:25.986Z,-3.21
2024-01-27T22:08:52.749Z,-3.18
2024-01-27T22:11:19.381Z,-3.13
2024-01-27T22:13:46.548Z,-3.11
2024-01-27T22:16:13.150Z,-3.00
2024-01-27T22:18:40.223Z,-2.93
2024-01-27T22:21:07.296Z,-2.96
2024-01-27T22:23:34.063Z,-2.95
2024-01-27T22:26:00.694Z,-2.94
2024-01-27T22:28:28.225Z,-3.02
2024-01-27T22:30:54.910Z,-3.06
2024-01-27T22:33:24.438Z,-3.08
2024-01-27T22:35:51.450Z,-3.11
2024-01-27T22:38:18.195Z,-3.18
2024-01-27T22:40:44.869Z,-3.29
2024-01-27T22:43:11.905Z,-3.28
2024-01-27T22:45:39.097Z,-3.34
2024-01-27T22:48:05.971Z,-3.33
2024-01-27T22:50:32.690Z,-3.38
2024-01-27T22:52:59.365Z,-3.42
2024-01-27T22:55:26.018Z,-3.46
2024-01-27T22:57:52.724Z,-3.52
2024-01-27T23:00:34.647Z,-3.50
2024-01-27T23:03:04.947Z,-3.37
2024-01-27T23:05:32.875Z,-3.31
2024-01-27T23:07:59.573Z,-3.35
2024-01-27T23:10:32.196Z,-3.46
2024-01-27T23:12:59.369Z,-3.40
2024-01-27T23:15:26.132Z,-3.45
2024-01-27T23:17:52.836Z,-3.42
2024-01-27T23:20:19.508Z,-3.43
2024-01-27T23:22:46.174Z,-3.52
2024-01-27T23:25:12.926Z,-3.53
2024-01-27T23:27:39.752Z,-3.56
2024-01-27T23:30:08.224Z,-3.57
2024-01-27T23:32:35.126Z,-6.75
2024-01-27T23:35:01.802Z,-3.51
2024-01-27T23:37:28.579Z,-3.43
2024-01-27T23:39:55.232Z,-3.32
2024-01-27T23:42:21.973Z,-3.21
2024-01-27T23:44:48.626Z,-3.11
2024-01-27T23:47:15.360Z,-2.95
2024-01-27T23:49:42.159Z,-2.92
2024-01-27T23:52:11.258Z,-3.01
2024-01-27T23:54:38.350Z,-3.04
2024-01-27T23:57:05.932Z,-3.04
2024-01-27T23:59:32.695Z,-3.03
